AirNav   Air Wisconsin pilot careers
 
 313 users online  

O74 Elliot's Landing Airport
Mount Victory, Ohio, USA

GOING TO MOUNT VICTORY?


FAA INFORMATION EFFECTIVE 03 JANUARY 2019

Location

FAA Identifier: O74
Lat/Long: 40-31-29.0000N / 083-30-42.0000W
40-31.483333N / 083-30.700000W
40.5247222 / -83.5116667
(estimated)
Elevation: 1045 ft. / 319 m (estimated)
Variation: 05W (1995)
From city: 1 mile SE of MOUNT VICTORY, OH
Time zone: UTC -5 (UTC -4 during Daylight Saving Time)
Zip code: 43340

Airport Operations

Airport use: Open to the public
Activation date: 06/1995
Control tower: no
ARTCC: INDIANAPOLIS CENTER
FSS: DAYTON FLIGHT SERVICE STATION
NOTAMs facility: DAY (NOTAM-D service available)
Attendance: UNATNDD
Wind indicator: yes
Segmented circle: no

Airport Communications

CTAF: 122.9
WX AWOS-3 at EDJ (17 nm SW): 118.075 (937-599-4654)
WX AWOS-3 at MRT (19 nm S): 119.275 (937-644-2967)

Nearby radio navigation aids

VOR radial/distance  VOR name  Freq  Var
BUDr260/(21.1)BUCKEYE VOR109.8005W
FBCr159/28.1FLAG CITY VORTAC108.2002W
RODr065/28.1ROSEWOOD VORTAC117.5005W

 
NDB name  Hdg/Dist  Freq  Var  ID
TIFFIN207/36.826905WTII - .. ..

Airport Services

Runway Information

Runway 15/33

Dimensions: 2750 x 110 ft. / 838 x 34 m
Surface: turf, in good condition
Runway edge markings: 15/33 MARKED WITH TIRES ON EACH END.
RUNWAY 15  RUNWAY 33
Traffic pattern: leftleft
Obstructions: 63 ft. trees, 867 ft. from runway, 82 ft. left of centerline, 13:1 slope to clear35 ft. pline, 400 ft. from runway, 162 ft. left of centerline, 11:1 slope to clear

Airport Ownership and Management from official FAA records

Ownership: Privately-owned
Owner: ELLIOT & ELLIOTT INC
BOX 257 491 S MAIN ST
MT VICTORY, OH 43340-0257
Phone 937-354-2851
Manager: JOAN E. WAGNER
BOX 257 491 S MAIN ST
MT VICTORY, OH 43340-0257
Phone 937-354-2851

Airport Operational Statistics

Aircraft operations: avg 30/week *
100% transient general aviation
* for 12-month period ending 03 September 2016

Instrument Procedures

There are no published instrument procedures at O74.

Some nearby airports with instrument procedures:

I95 - Hardin County Airport (8 nm NW)
KEDJ - Bellefontaine Regional Airport (17 nm SW)
KMRT - Union County Airport (19 nm S)
KMNN - Marion Municipal Airport (21 nm E)
56D - Wyandot County Airport (23 nm NE)
 
Loc | Ops | Rwys | IFR | FBO | Links
Com | Nav | Svcs | Stats | Notes
Area around O74 (Elliot's Landing Airport)
 
Road maps at: MapQuest Bing Google
 
Aerial photo
WARNING: Photo may not be current or correct
Aerial photo of O74 (Elliot's Landing Airport)
Do you have a better or more recent aerial photo of Elliot's Landing Airport that you would like to share? If so, please send us your photo.

 
Sectional chart

 
Airport distance calculator
Flying to Elliot's Landing Airport? Find the distance to fly.

From to O74

Sunrise and sunset
Times for 20-Jan-2019
 Local
(UTC-5)
 Zulu
(UTC)
Morning civil twilight07:2412:24
Sunrise07:5412:54
Sunset17:3622:36
Evening civil twilight18:0623:06

Current date and time
Zulu (UTC)  20-Jan-2019 10:13:13
Local (UTC-5)  20-Jan-2019 05:13:13
 
METAR
KEDJ 
17nm SW 
201000Z AUTO 00000KT 1 1/4SM CLR M13/M14 A2989 RMK AO1
KMRT 
19nm S 
200955Z AUTO 35008KT 2 1/2SM OVC012 M09/M11 A2982 RMK AO2 T10951112
KMNN 
21nm E 
200953Z AUTO 35021G30KT 1 1/4SM BR BKN018 OVC023 M08/M10 A2981 RMK AO2 PK WND 36031/0914 SLP111 T10781100 PWINO FZRANO $
KDLZ 
23nm SE 
200955Z AUTO 33009KT 3SM -SN OVC015 M07/M08 A2980 RMK AO2
KAOH 
25nm NW 
200953Z AUTO 34019G27KT 5SM -SN OVC024 M12/M16 A2992 RMK AO2 PK WND 35030/0916 SLP149 P0000 T11221156 $
KFDY 
30nm N 
200953Z AUTO 33017G27KT 1 1/2SM HZ OVC026 M12/M15 A2992 RMK AO2 PK WND 33029/0936 SLP141 T11221150 PWINO FZRANO $
KOSU 
33nm SE 
200953Z AUTO 35021G33KT 1 3/4SM BR OVC015 M07/M09 A2977 RMK AO2 PK WND 36033/0952 PRESRR SLP093 T10721094 PWINO FZRANO $
TAF
KFDY 
30nm N 
200541Z 2006/2106 36020G30KT 1SM -SN BR OVC015 FM201000 35018G28KT P6SM OVC015 FM201200 34016G27KT P6SM BKN020 FM201500 24015G25KT P6SM BKN035 FM210200 32010KT P6SM SCT040
NOTAMs
Click for the latest NOTAMs
NOTAMs are issued by the DoD/FAA and will open in a separate window not controlled by AirNav.

 

 
 

Would you like to see your business listed on this page?

 If your business provides an interesting product or service to pilots, flight crews, aircraft, or users of the Elliot's Landing Airport, you should consider listing it here.  To start the listing process, click on the button below
 
Add a business
 

Other Pages about Elliot's Landing Airport

Update a link
 
Copyright © AirNav, LLC. All rights reserved. Privacy Policy  Contact